sensor_id;sensor_type;location;lat;lon;timestamp;P1;durP1;ratioP1;P2;durP2;ratioP2
37843;SDS011;63793;57.632;18.292;2023-06-22T00:01:20;29.08;;;26.17;;
37843;SDS011;63793;57.632;18.292;2023-06-22T00:03:49;29.00;;;26.08;;
37843;SDS011;63793;57.632;18.292;2023-06-22T00:06:16;29.27;;;26.23;;
37843;SDS011;63793;57.632;18.292;2023-06-22T00:08:43;29.98;;;27.08;;
37843;SDS011;63793;57.632;18.292;2023-06-22T00:11:10;32.80;;;29.63;;
37843;SDS011;63793;57.632;18.292;2023-06-22T00:13:37;31.90;;;28.70;;
37843;SDS011;63793;57.632;18.292;2023-06-22T00:16:05;33.08;;;29.73;;
37843;SDS011;63793;57.632;18.292;2023-06-22T00:18:32;31.25;;;27.90;;
37843;SDS011;63793;57.632;18.292;2023-06-22T00:20:59;33.33;;;30.00;;
37843;SDS011;63793;57.632;18.292;2023-06-22T00:23:26;28.17;;;25.08;;
37843;SDS011;63793;57.632;18.292;2023-06-22T00:25:53;34.00;;;30.50;;
37843;SDS011;63793;57.632;18.292;2023-06-22T00:28:20;34.88;;;31.38;;
37843;SDS011;63793;57.632;18.292;2023-06-22T00:30:48;36.75;;;32.80;;
37843;SDS011;63793;57.632;18.292;2023-06-22T00:33:17;40.05;;;35.78;;
37843;SDS011;63793;57.632;18.292;2023-06-22T00:35:44;42.67;;;37.80;;
37843;SDS011;63793;57.632;18.292;2023-06-22T00:38:11;43.15;;;38.53;;
37843;SDS011;63793;57.632;18.292;2023-06-22T00:40:41;44.72;;;39.95;;
37843;SDS011;63793;57.632;18.292;2023-06-22T00:43:07;46.83;;;41.97;;
37843;SDS011;63793;57.632;18.292;2023-06-22T00:45:34;46.58;;;41.42;;
37843;SDS011;63793;57.632;18.292;2023-06-22T00:48:01;49.05;;;42.25;;
37843;SDS011;63793;57.632;18.292;2023-06-22T00:50:30;49.00;;;41.38;;
37843;SDS011;63793;57.632;18.292;2023-06-22T00:53:03;48.08;;;43.03;;
37843;SDS011;63793;57.632;18.292;2023-06-22T00:55:38;43.25;;;38.05;;
37843;SDS011;63793;57.632;18.292;2023-06-22T00:58:09;46.65;;;41.70;;
37843;SDS011;63793;57.632;18.292;2023-06-22T01:00:38;47.58;;;41.53;;
37843;SDS011;63793;57.632;18.292;2023-06-22T01:03:05;46.50;;;40.65;;
37843;SDS011;63793;57.632;18.292;2023-06-22T01:16:37;51.92;;;42.25;;
37843;SDS011;63793;57.632;18.292;2023-06-22T01:22:01;46.45;;;41.55;;
37843;SDS011;63793;57.632;18.292;2023-06-22T01:24:32;39.63;;;35.65;;
37843;SDS011;63793;57.632;18.292;2023-06-22T01:29:51;43.58;;;39.08;;
37843;SDS011;63793;57.632;18.292;2023-06-22T01:32:28;39.88;;;35.80;;
37843;SDS011;63793;57.632;18.292;2023-06-22T01:34:57;42.15;;;37.53;;
37843;SDS011;63793;57.632;18.292;2023-06-22T01:37:27;38.40;;;34.30;;
37843;SDS011;63793;57.632;18.292;2023-06-22T01:39:55;39.80;;;35.25;;
37843;SDS011;63793;57.632;18.292;2023-06-22T01:42:23;38.97;;;34.85;;
37843;SDS011;63793;57.632;18.292;2023-06-22T01:44:52;41.72;;;37.47;;
37843;SDS011;63793;57.632;18.292;2023-06-22T01:47:20;43.13;;;38.47;;
37843;SDS011;63793;57.632;18.292;2023-06-22T01:49:48;40.60;;;34.65;;
37843;SDS011;63793;57.632;18.292;2023-06-22T01:52:19;45.55;;;39.92;;
37843;SDS011;63793;57.632;18.292;2023-06-22T01:54:48;41.08;;;36.78;;
37843;SDS011;63793;57.632;18.292;2023-06-22T01:57:15;43.05;;;37.58;;
37843;SDS011;63793;57.632;18.292;2023-06-22T02:02:21;44.42;;;39.72;;
37843;SDS011;63793;57.632;18.292;2023-06-22T02:04:58;42.47;;;38.13;;
37843;SDS011;63793;57.632;18.292;2023-06-22T02:07:34;45.38;;;40.58;;
37843;SDS011;63793;57.632;18.292;2023-06-22T02:10:08;41.20;;;36.72;;
37843;SDS011;63793;57.632;18.292;2023-06-22T02:12:38;41.13;;;36.83;;
37843;SDS011;63793;57.632;18.292;2023-06-22T02:15:08;35.55;;;31.75;;
37843;SDS011;63793;57.632;18.292;2023-06-22T02:17:37;40.53;;;36.25;;
37843;SDS011;63793;57.632;18.292;2023-06-22T02:20:04;34.95;;;31.33;;
37843;SDS011;63793;57.632;18.292;2023-06-22T02:22:34;39.70;;;35.50;;
37843;SDS011;63793;57.632;18.292;2023-06-22T02:25:01;34.05;;;30.65;;
37843;SDS011;63793;57.632;18.292;2023-06-22T02:27:29;38.95;;;34.97;;
37843;SDS011;63793;57.632;18.292;2023-06-22T02:29:56;34.25;;;30.85;;
37843;SDS011;63793;57.632;18.292;2023-06-22T02:32:23;33.35;;;30.13;;
37843;SDS011;63793;57.632;18.292;2023-06-22T02:34:50;31.40;;;28.17;;
37843;SDS011;63793;57.632;18.292;2023-06-22T02:37:18;31.02;;;27.88;;
37843;SDS011;63793;57.632;18.292;2023-06-22T02:39:45;30.33;;;27.35;;
37843;SDS011;63793;57.632;18.292;2023-06-22T02:42:12;25.85;;;23.45;;
37843;SDS011;63793;57.632;18.292;2023-06-22T02:44:39;25.25;;;22.67;;
37843;SDS011;63793;57.632;18.292;2023-06-22T02:47:07;28.33;;;25.48;;
37843;SDS011;63793;57.632;18.292;2023-06-22T02:49:34;27.45;;;24.75;;
37843;SDS011;63793;57.632;18.292;2023-06-22T02:52:01;27.35;;;24.70;;
37843;SDS011;63793;57.632;18.292;2023-06-22T02:54:28;28.20;;;25.40;;
37843;SDS011;63793;57.632;18.292;2023-06-22T02:56:55;29.05;;;26.05;;
37843;SDS011;63793;57.632;18.292;2023-06-22T02:59:22;28.13;;;24.27;;
37843;SDS011;63793;57.632;18.292;2023-06-22T03:01:52;26.33;;;23.73;;
37843;SDS011;63793;57.632;18.292;2023-06-22T03:04:26;25.35;;;22.85;;
37843;SDS011;63793;57.632;18.292;2023-06-22T03:06:53;26.00;;;22.98;;
37843;SDS011;63793;57.632;18.292;2023-06-22T03:09:20;25.95;;;22.10;;
37843;SDS011;63793;57.632;18.292;2023-06-22T03:11:47;24.55;;;21.65;;
37843;SDS011;63793;57.632;18.292;2023-06-22T03:14:15;26.98;;;24.13;;
37843;SDS011;63793;57.632;18.292;2023-06-22T03:16:42;23.65;;;21.33;;
37843;SDS011;63793;57.632;18.292;2023-06-22T03:19:09;24.25;;;21.75;;
37843;SDS011;63793;57.632;18.292;2023-06-22T03:21:37;24.38;;;21.98;;
37843;SDS011;63793;57.632;18.292;2023-06-22T03:24:05;23.95;;;21.55;;
37843;SDS011;63793;57.632;18.292;2023-06-22T03:26:33;24.67;;;22.20;;
37843;SDS011;63793;57.632;18.292;2023-06-22T03:29:00;21.75;;;19.67;;
37843;SDS011;63793;57.632;18.292;2023-06-22T03:31:29;26.17;;;23.67;;
37843;SDS011;63793;57.632;18.292;2023-06-22T03:33:56;22.92;;;19.73;;
37843;SDS011;63793;57.632;18.292;2023-06-22T03:36:23;23.02;;;20.77;;
37843;SDS011;63793;57.632;18.292;2023-06-22T03:38:50;24.70;;;22.13;;
37843;SDS011;63793;57.632;18.292;2023-06-22T03:41:17;21.77;;;19.48;;
37843;SDS011;63793;57.632;18.292;2023-06-22T03:43:45;20.40;;;18.35;;
37843;SDS011;63793;57.632;18.292;2023-06-22T03:46:14;21.98;;;19.92;;
37843;SDS011;63793;57.632;18.292;2023-06-22T03:48:42;22.27;;;19.95;;
37843;SDS011;63793;57.632;18.292;2023-06-22T03:51:08;19.75;;;17.83;;
37843;SDS011;63793;57.632;18.292;2023-06-22T03:53:35;19.70;;;17.85;;
37843;SDS011;63793;57.632;18.292;2023-06-22T03:56:02;19.27;;;17.27;;
37843;SDS011;63793;57.632;18.292;2023-06-22T03:58:29;20.83;;;18.67;;
37843;SDS011;63793;57.632;18.292;2023-06-22T04:00:59;19.15;;;17.42;;
37843;SDS011;63793;57.632;18.292;2023-06-22T04:03:26;15.77;;;14.27;;
37843;SDS011;63793;57.632;18.292;2023-06-22T04:05:53;19.70;;;15.70;;
37843;SDS011;63793;57.632;18.292;2023-06-22T04:08:20;17.13;;;15.05;;
37843;SDS011;63793;57.632;18.292;2023-06-22T04:10:47;15.68;;;14.18;;
37843;SDS011;63793;57.632;18.292;2023-06-22T04:13:14;14.88;;;13.48;;
37843;SDS011;63793;57.632;18.292;2023-06-22T04:15:41;14.80;;;13.38;;
37843;SDS011;63793;57.632;18.292;2023-06-22T04:18:08;16.85;;;14.93;;
37843;SDS011;63793;57.632;18.292;2023-06-22T04:20:35;16.17;;;14.63;;
37843;SDS011;63793;57.632;18.292;2023-06-22T04:23:02;16.00;;;14.30;;
37843;SDS011;63793;57.632;18.292;2023-06-22T04:25:29;17.80;;;14.18;;
37843;SDS011;63793;57.632;18.292;2023-06-22T04:27:56;16.88;;;13.43;;
37843;SDS011;63793;57.632;18.292;2023-06-22T04:30:23;16.45;;;14.23;;
37843;SDS011;63793;57.632;18.292;2023-06-22T04:32:50;15.40;;;13.95;;
37843;SDS011;63793;57.632;18.292;2023-06-22T04:35:22;14.77;;;13.30;;
37843;SDS011;63793;57.632;18.292;2023-06-22T04:37:50;13.25;;;11.88;;
37843;SDS011;63793;57.632;18.292;2023-06-22T04:40:21;13.27;;;11.60;;
37843;SDS011;63793;57.632;18.292;2023-06-22T04:42:49;14.20;;;12.00;;
37843;SDS011;63793;57.632;18.292;2023-06-22T04:45:20;12.52;;;10.48;;
37843;SDS011;63793;57.632;18.292;2023-06-22T04:47:47;14.25;;;11.77;;
37843;SDS011;63793;57.632;18.292;2023-06-22T04:50:14;14.00;;;11.57;;
37843;SDS011;63793;57.632;18.292;2023-06-22T04:52:41;13.25;;;11.07;;
37843;SDS011;63793;57.632;18.292;2023-06-22T04:55:08;10.93;;;9.93;;
37843;SDS011;63793;57.632;18.292;2023-06-22T04:57:35;11.80;;;10.60;;
37843;SDS011;63793;57.632;18.292;2023-06-22T05:00:05;9.30;;;8.40;;
37843;SDS011;63793;57.632;18.292;2023-06-22T05:02:40;12.60;;;9.90;;
37843;SDS011;63793;57.632;18.292;2023-06-22T05:05:07;12.27;;;9.52;;
37843;SDS011;63793;57.632;18.292;2023-06-22T05:07:35;13.75;;;10.65;;
37843;SDS011;63793;57.632;18.292;2023-06-22T05:10:03;12.18;;;8.80;;
37843;SDS011;63793;57.632;18.292;2023-06-22T05:12:31;12.10;;;9.45;;
37843;SDS011;63793;57.632;18.292;2023-06-22T05:14:58;9.82;;;8.35;;
37843;SDS011;63793;57.632;18.292;2023-06-22T05:17:25;12.85;;;9.30;;
37843;SDS011;63793;57.632;18.292;2023-06-22T05:19:52;9.80;;;8.73;;
37843;SDS011;63793;57.632;18.292;2023-06-22T05:22:19;9.32;;;8.48;;
37843;SDS011;63793;57.632;18.292;2023-06-22T05:24:46;8.75;;;6.78;;
37843;SDS011;63793;57.632;18.292;2023-06-22T05:27:13;11.88;;;6.53;;
37843;SDS011;63793;57.632;18.292;2023-06-22T05:29:40;11.88;;;5.22;;
37843;SDS011;63793;57.632;18.292;2023-06-22T05:32:09;4.85;;;3.90;;
37843;SDS011;63793;57.632;18.292;2023-06-22T05:34:36;5.55;;;4.18;;
37843;SDS011;63793;57.632;18.292;2023-06-22T05:37:03;7.30;;;4.13;;
37843;SDS011;63793;57.632;18.292;2023-06-22T05:39:30;8.45;;;3.97;;
37843;SDS011;63793;57.632;18.292;2023-06-22T05:41:57;4.53;;;3.22;;
37843;SDS011;63793;57.632;18.292;2023-06-22T05:44:24;6.50;;;3.80;;
37843;SDS011;63793;57.632;18.292;2023-06-22T05:46:51;11.55;;;3.80;;
37843;SDS011;63793;57.632;18.292;2023-06-22T05:49:18;7.07;;;3.05;;
37843;SDS011;63793;57.632;18.292;2023-06-22T05:51:44;3.75;;;2.88;;
37843;SDS011;63793;57.632;18.292;2023-06-22T05:54:11;6.90;;;3.50;;
37843;SDS011;63793;57.632;18.292;2023-06-22T05:56:40;7.18;;;4.20;;
37843;SDS011;63793;57.632;18.292;2023-06-22T05:59:07;3.72;;;3.05;;
37843;SDS011;63793;57.632;18.292;2023-06-22T06:01:33;4.88;;;4.38;;
37843;SDS011;63793;57.632;18.292;2023-06-22T06:04:05;4.88;;;4.38;;
37843;SDS011;63793;57.632;18.292;2023-06-22T06:06:34;7.30;;;4.55;;
37843;SDS011;63793;57.632;18.292;2023-06-22T06:09:04;8.02;;;5.22;;
37843;SDS011;63793;57.632;18.292;2023-06-22T06:11:31;8.63;;;4.63;;
37843;SDS011;63793;57.632;18.292;2023-06-22T06:13:57;7.97;;;3.47;;
37843;SDS011;63793;57.632;18.292;2023-06-22T06:16:24;7.43;;;3.83;;
37843;SDS011;63793;57.632;18.292;2023-06-22T06:18:51;3.88;;;3.13;;
37843;SDS011;63793;57.632;18.292;2023-06-22T06:21:21;6.35;;;3.70;;
37843;SDS011;63793;57.632;18.292;2023-06-22T06:23:48;7.30;;;4.07;;
37843;SDS011;63793;57.632;18.292;2023-06-22T06:26:15;4.10;;;3.60;;
37843;SDS011;63793;57.632;18.292;2023-06-22T06:28:43;5.75;;;3.47;;
37843;SDS011;63793;57.632;18.292;2023-06-22T06:31:10;5.15;;;3.25;;
37843;SDS011;63793;57.632;18.292;2023-06-22T06:33:38;6.78;;;4.38;;
37843;SDS011;63793;57.632;18.292;2023-06-22T06:36:05;5.10;;;3.63;;
37843;SDS011;63793;57.632;18.292;2023-06-22T06:38:34;6.75;;;4.25;;
37843;SDS011;63793;57.632;18.292;2023-06-22T06:41:01;4.63;;;3.53;;
37843;SDS011;63793;57.632;18.292;2023-06-22T06:43:28;12.02;;;3.90;;
37843;SDS011;63793;57.632;18.292;2023-06-22T06:45:55;10.00;;;3.83;;
37843;SDS011;63793;57.632;18.292;2023-06-22T06:48:22;7.53;;;3.80;;
37843;SDS011;63793;57.632;18.292;2023-06-22T06:50:49;5.10;;;4.25;;
37843;SDS011;63793;57.632;18.292;2023-06-22T06:53:16;4.65;;;4.03;;
37843;SDS011;63793;57.632;18.292;2023-06-22T06:55:43;14.90;;;4.25;;
37843;SDS011;63793;57.632;18.292;2023-06-22T06:58:12;5.45;;;3.13;;
37843;SDS011;63793;57.632;18.292;2023-06-22T07:00:39;6.40;;;4.25;;
37843;SDS011;63793;57.632;18.292;2023-06-22T07:03:06;9.43;;;5.07;;
37843;SDS011;63793;57.632;18.292;2023-06-22T07:05:33;7.88;;;4.32;;
37843;SDS011;63793;57.632;18.292;2023-06-22T07:08:01;5.45;;;4.53;;
37843;SDS011;63793;57.632;18.292;2023-06-22T07:10:28;5.30;;;3.72;;
37843;SDS011;63793;57.632;18.292;2023-06-22T07:12:56;9.50;;;3.75;;
37843;SDS011;63793;57.632;18.292;2023-06-22T07:15:23;9.77;;;3.95;;
37843;SDS011;63793;57.632;18.292;2023-06-22T07:17:50;4.85;;;3.80;;
37843;SDS011;63793;57.632;18.292;2023-06-22T07:20:17;5.32;;;3.53;;
37843;SDS011;63793;57.632;18.292;2023-06-22T07:22:45;7.03;;;3.55;;
37843;SDS011;63793;57.632;18.292;2023-06-22T07:25:13;11.45;;;4.13;;
37843;SDS011;63793;57.632;18.292;2023-06-22T07:27:45;6.03;;;3.97;;
37843;SDS011;63793;57.632;18.292;2023-06-22T07:30:22;6.53;;;4.80;;
37843;SDS011;63793;57.632;18.292;2023-06-22T07:32:49;8.23;;;3.65;;
37843;SDS011;63793;57.632;18.292;2023-06-22T07:35:17;7.30;;;3.35;;
37843;SDS011;63793;57.632;18.292;2023-06-22T07:37:44;6.40;;;3.92;;
37843;SDS011;63793;57.632;18.292;2023-06-22T07:40:11;8.75;;;4.20;;
37843;SDS011;63793;57.632;18.292;2023-06-22T07:42:39;6.80;;;4.22;;
37843;SDS011;63793;57.632;18.292;2023-06-22T07:45:06;5.10;;;4.35;;
37843;SDS011;63793;57.632;18.292;2023-06-22T07:47:35;6.05;;;3.92;;
37843;SDS011;63793;57.632;18.292;2023-06-22T07:50:02;7.25;;;2.95;;
37843;SDS011;63793;57.632;18.292;2023-06-22T07:52:30;3.53;;;3.22;;
37843;SDS011;63793;57.632;18.292;2023-06-22T07:54:57;5.45;;;4.10;;
37843;SDS011;63793;57.632;18.292;2023-06-22T07:57:24;6.13;;;4.07;;
37843;SDS011;63793;57.632;18.292;2023-06-22T08:00:02;9.05;;;4.25;;
37843;SDS011;63793;57.632;18.292;2023-06-22T08:02:41;4.38;;;3.80;;
37843;SDS011;63793;57.632;18.292;2023-06-22T08:05:10;3.53;;;3.22;;
37843;SDS011;63793;57.632;18.292;2023-06-22T08:07:48;5.45;;;3.45;;
37843;SDS011;63793;57.632;18.292;2023-06-22T08:10:16;6.30;;;3.13;;
37843;SDS011;63793;57.632;18.292;2023-06-22T08:12:43;4.80;;;3.92;;
37843;SDS011;63793;57.632;18.292;2023-06-22T08:15:10;8.75;;;3.78;;
37843;SDS011;63793;57.632;18.292;2023-06-22T08:17:37;7.28;;;4.57;;
37843;SDS011;63793;57.632;18.292;2023-06-22T08:20:05;6.78;;;4.25;;
37843;SDS011;63793;57.632;18.292;2023-06-22T08:22:39;9.73;;;4.13;;
37843;SDS011;63793;57.632;18.292;2023-06-22T08:25:06;8.05;;;3.72;;
37843;SDS011;63793;57.632;18.292;2023-06-22T08:27:34;4.30;;;3.42;;
37843;SDS011;63793;57.632;18.292;2023-06-22T08:30:02;8.20;;;4.43;;
37843;SDS011;63793;57.632;18.292;2023-06-22T08:32:29;6.32;;;4.05;;
37843;SDS011;63793;57.632;18.292;2023-06-22T08:34:59;5.97;;;4.43;;
37843;SDS011;63793;57.632;18.292;2023-06-22T08:37:26;4.28;;;3.67;;
37843;SDS011;63793;57.632;18.292;2023-06-22T08:40:01;10.82;;;4.28;;
37843;SDS011;63793;57.632;18.292;2023-06-22T08:42:34;6.00;;;3.92;;
37843;SDS011;63793;57.632;18.292;2023-06-22T08:45:07;8.13;;;3.53;;
37843;SDS011;63793;57.632;18.292;2023-06-22T08:47:34;5.18;;;3.63;;
37843;SDS011;63793;57.632;18.292;2023-06-22T08:50:01;5.80;;;4.18;;
37843;SDS011;63793;57.632;18.292;2023-06-22T08:52:31;6.80;;;5.60;;
37843;SDS011;63793;57.632;18.292;2023-06-22T08:54:58;10.32;;;3.63;;
37843;SDS011;63793;57.632;18.292;2023-06-22T08:57:25;4.93;;;4.13;;
37843;SDS011;63793;57.632;18.292;2023-06-22T08:59:52;5.22;;;4.43;;
37843;SDS011;63793;57.632;18.292;2023-06-22T09:02:19;4.43;;;3.90;;
37843;SDS011;63793;57.632;18.292;2023-06-22T09:04:46;4.57;;;3.90;;
37843;SDS011;63793;57.632;18.292;2023-06-22T09:07:14;5.93;;;4.25;;
37843;SDS011;63793;57.632;18.292;2023-06-22T09:09:40;6.35;;;3.38;;
37843;SDS011;63793;57.632;18.292;2023-06-22T09:12:07;5.32;;;4.15;;
37843;SDS011;63793;57.632;18.292;2023-06-22T09:14:35;6.35;;;3.85;;
37843;SDS011;63793;57.632;18.292;2023-06-22T09:17:02;4.57;;;4.07;;
37843;SDS011;63793;57.632;18.292;2023-06-22T09:19:28;5.88;;;4.95;;
37843;SDS011;63793;57.632;18.292;2023-06-22T09:21:55;4.80;;;4.15;;
37843;SDS011;63793;57.632;18.292;2023-06-22T09:24:22;8.60;;;4.95;;
37843;SDS011;63793;57.632;18.292;2023-06-22T09:26:49;4.35;;;3.95;;
37843;SDS011;63793;57.632;18.292;2023-06-22T09:29:16;4.60;;;3.58;;
37843;SDS011;63793;57.632;18.292;2023-06-22T09:31:43;4.97;;;3.83;;
37843;SDS011;63793;57.632;18.292;2023-06-22T09:34:11;5.85;;;4.60;;
37843;SDS011;63793;57.632;18.292;2023-06-22T09:36:37;4.93;;;4.35;;
37843;SDS011;63793;57.632;18.292;2023-06-22T09:39:06;4.75;;;4.10;;
37843;SDS011;63793;57.632;18.292;2023-06-22T09:41:33;5.30;;;3.70;;
37843;SDS011;63793;57.632;18.292;2023-06-22T09:44:00;5.15;;;4.65;;
37843;SDS011;63793;57.632;18.292;2023-06-22T09:46:26;7.82;;;5.30;;
37843;SDS011;63793;57.632;18.292;2023-06-22T09:48:54;5.18;;;4.68;;
37843;SDS011;63793;57.632;18.292;2023-06-22T09:51:21;10.68;;;4.85;;
37843;SDS011;63793;57.632;18.292;2023-06-22T09:53:50;5.30;;;3.60;;
37843;SDS011;63793;57.632;18.292;2023-06-22T09:56:17;8.50;;;4.78;;
37843;SDS011;63793;57.632;18.292;2023-06-22T09:58:45;3.92;;;3.08;;
37843;SDS011;63793;57.632;18.292;2023-06-22T10:01:13;7.60;;;3.78;;
37843;SDS011;63793;57.632;18.292;2023-06-22T10:03:42;5.38;;;3.75;;
37843;SDS011;63793;57.632;18.292;2023-06-22T10:06:10;5.22;;;3.47;;
37843;SDS011;63793;57.632;18.292;2023-06-22T10:08:37;5.70;;;4.80;;
37843;SDS011;63793;57.632;18.292;2023-06-22T10:11:04;4.10;;;3.70;;
37843;SDS011;63793;57.632;18.292;2023-06-22T10:13:32;6.25;;;3.30;;
37843;SDS011;63793;57.632;18.292;2023-06-22T10:15:58;6.07;;;4.78;;
37843;SDS011;63793;57.632;18.292;2023-06-22T10:18:25;5.55;;;4.47;;
37843;SDS011;63793;57.632;18.292;2023-06-22T10:20:52;5.28;;;3.92;;
37843;SDS011;63793;57.632;18.292;2023-06-22T10:23:19;4.32;;;4.00;;
37843;SDS011;63793;57.632;18.292;2023-06-22T10:25:47;7.82;;;4.10;;
37843;SDS011;63793;57.632;18.292;2023-06-22T10:28:14;6.82;;;3.97;;
37843;SDS011;63793;57.632;18.292;2023-06-22T10:30:41;5.95;;;3.45;;
37843;SDS011;63793;57.632;18.292;2023-06-22T10:33:11;5.90;;;4.47;;
37843;SDS011;63793;57.632;18.292;2023-06-22T10:38:05;5.05;;;4.53;;
37843;SDS011;63793;57.632;18.292;2023-06-22T10:40:32;4.57;;;4.18;;
37843;SDS011;63793;57.632;18.292;2023-06-22T10:42:59;4.63;;;3.20;;
37843;SDS011;63793;57.632;18.292;2023-06-22T10:45:26;6.18;;;5.07;;
37843;SDS011;63793;57.632;18.292;2023-06-22T10:50:24;8.10;;;4.13;;
37843;SDS011;63793;57.632;18.292;2023-06-22T10:52:51;5.93;;;3.88;;
37843;SDS011;63793;57.632;18.292;2023-06-22T10:55:19;3.40;;;3.10;;
37843;SDS011;63793;57.632;18.292;2023-06-22T10:57:45;9.23;;;3.78;;
37843;SDS011;63793;57.632;18.292;2023-06-22T11:00:14;6.28;;;3.53;;
37843;SDS011;63793;57.632;18.292;2023-06-22T11:02:42;8.48;;;3.92;;
37843;SDS011;63793;57.632;18.292;2023-06-22T11:05:09;6.35;;;4.13;;
37843;SDS011;63793;57.632;18.292;2023-06-22T11:07:37;6.50;;;4.18;;
37843;SDS011;63793;57.632;18.292;2023-06-22T11:10:12;4.95;;;4.03;;
37843;SDS011;63793;57.632;18.292;2023-06-22T11:12:39;5.28;;;3.47;;
37843;SDS011;63793;57.632;18.292;2023-06-22T11:15:06;6.38;;;4.47;;
37843;SDS011;63793;57.632;18.292;2023-06-22T11:17:34;5.78;;;3.53;;
37843;SDS011;63793;57.632;18.292;2023-06-22T11:20:01;5.32;;;4.00;;
37843;SDS011;63793;57.632;18.292;2023-06-22T11:22:32;7.28;;;3.90;;
37843;SDS011;63793;57.632;18.292;2023-06-22T11:25:00;4.05;;;3.35;;
37843;SDS011;63793;57.632;18.292;2023-06-22T11:27:27;5.70;;;3.95;;
37843;SDS011;63793;57.632;18.292;2023-06-22T11:29:54;5.65;;;3.95;;
37843;SDS011;63793;57.632;18.292;2023-06-22T11:32:21;6.90;;;3.60;;
37843;SDS011;63793;57.632;18.292;2023-06-22T11:34:48;5.15;;;3.40;;
37843;SDS011;63793;57.632;18.292;2023-06-22T11:37:15;6.28;;;3.78;;
37843;SDS011;63793;57.632;18.292;2023-06-22T11:39:42;8.93;;;3.47;;
37843;SDS011;63793;57.632;18.292;2023-06-22T11:42:19;8.85;;;3.80;;
37843;SDS011;63793;57.632;18.292;2023-06-22T11:44:45;6.03;;;4.10;;
37843;SDS011;63793;57.632;18.292;2023-06-22T11:47:12;5.50;;;4.70;;
37843;SDS011;63793;57.632;18.292;2023-06-22T11:49:39;4.55;;;3.80;;
37843;SDS011;63793;57.632;18.292;2023-06-22T11:52:07;7.20;;;4.22;;
37843;SDS011;63793;57.632;18.292;2023-06-22T11:54:34;4.40;;;3.72;;
37843;SDS011;63793;57.632;18.292;2023-06-22T11:57:01;3.85;;;3.20;;
37843;SDS011;63793;57.632;18.292;2023-06-22T11:59:28;4.75;;;3.60;;
37843;SDS011;63793;57.632;18.292;2023-06-22T12:01:55;5.72;;;4.45;;
37843;SDS011;63793;57.632;18.292;2023-06-22T12:04:21;5.80;;;4.47;;
37843;SDS011;63793;57.632;18.292;2023-06-22T12:06:48;6.10;;;4.22;;
37843;SDS011;63793;57.632;18.292;2023-06-22T12:09:15;4.63;;;3.75;;
37843;SDS011;63793;57.632;18.292;2023-06-22T12:11:42;7.20;;;3.88;;
37843;SDS011;63793;57.632;18.292;2023-06-22T12:14:09;4.88;;;4.00;;
37843;SDS011;63793;57.632;18.292;2023-06-22T12:16:36;4.75;;;3.63;;
37843;SDS011;63793;57.632;18.292;2023-06-22T12:19:04;6.07;;;3.53;;
37843;SDS011;63793;57.632;18.292;2023-06-22T12:21:30;5.72;;;3.28;;
37843;SDS011;63793;57.632;18.292;2023-06-22T12:23:57;4.43;;;3.72;;
37843;SDS011;63793;57.632;18.292;2023-06-22T12:26:24;4.90;;;4.38;;
37843;SDS011;63793;57.632;18.292;2023-06-22T12:28:51;4.35;;;3.53;;
37843;SDS011;63793;57.632;18.292;2023-06-22T12:31:18;4.47;;;3.15;;
37843;SDS011;63793;57.632;18.292;2023-06-22T12:33:45;7.20;;;3.60;;
37843;SDS011;63793;57.632;18.292;2023-06-22T12:36:12;4.13;;;3.38;;
37843;SDS011;63793;57.632;18.292;2023-06-22T12:38:38;4.60;;;3.10;;
37843;SDS011;63793;57.632;18.292;2023-06-22T12:41:05;5.18;;;3.90;;
37843;SDS011;63793;57.632;18.292;2023-06-22T12:43:32;7.25;;;3.55;;
37843;SDS011;63793;57.632;18.292;2023-06-22T12:45:59;3.35;;;3.10;;
37843;SDS011;63793;57.632;18.292;2023-06-22T12:48:26;4.07;;;3.65;;
37843;SDS011;63793;57.632;18.292;2023-06-22T12:50:54;4.65;;;3.40;;
37843;SDS011;63793;57.632;18.292;2023-06-22T12:53:21;4.72;;;3.20;;
37843;SDS011;63793;57.632;18.292;2023-06-22T12:55:50;7.70;;;5.22;;
37843;SDS011;63793;57.632;18.292;2023-06-22T12:58:17;7.93;;;3.47;;
37843;SDS011;63793;57.632;18.292;2023-06-22T13:00:44;4.93;;;3.28;;
37843;SDS011;63793;57.632;18.292;2023-06-22T13:03:11;5.30;;;3.72;;
37843;SDS011;63793;57.632;18.292;2023-06-22T13:05:38;4.97;;;3.63;;
37843;SDS011;63793;57.632;18.292;2023-06-22T13:08:05;5.43;;;3.38;;
37843;SDS011;63793;57.632;18.292;2023-06-22T13:10:32;6.40;;;2.97;;
37843;SDS011;63793;57.632;18.292;2023-06-22T13:12:59;3.90;;;3.53;;
37843;SDS011;63793;57.632;18.292;2023-06-22T13:15:28;5.78;;;3.53;;
37843;SDS011;63793;57.632;18.292;2023-06-22T13:17:55;6.65;;;3.75;;
37843;SDS011;63793;57.632;18.292;2023-06-22T13:20:22;4.22;;;3.50;;
37843;SDS011;63793;57.632;18.292;2023-06-22T13:22:49;4.82;;;3.78;;
37843;SDS011;63793;57.632;18.292;2023-06-22T13:25:16;5.63;;;3.67;;
37843;SDS011;63793;57.632;18.292;2023-06-22T13:27:45;5.03;;;3.63;;
37843;SDS011;63793;57.632;18.292;2023-06-22T13:30:12;6.72;;;4.03;;
37843;SDS011;63793;57.632;18.292;2023-06-22T13:32:40;4.28;;;3.88;;
37843;SDS011;63793;57.632;18.292;2023-06-22T13:35:09;7.55;;;3.95;;
37843;SDS011;63793;57.632;18.292;2023-06-22T13:37:36;4.15;;;3.70;;
37843;SDS011;63793;57.632;18.292;2023-06-22T13:40:07;5.80;;;4.20;;
37843;SDS011;63793;57.632;18.292;2023-06-22T13:42:34;4.22;;;3.05;;
37843;SDS011;63793;57.632;18.292;2023-06-22T13:45:01;8.60;;;4.95;;
37843;SDS011;63793;57.632;18.292;2023-06-22T13:47:29;6.90;;;3.20;;
37843;SDS011;63793;57.632;18.292;2023-06-22T13:49:57;6.68;;;3.65;;
37843;SDS011;63793;57.632;18.292;2023-06-22T13:52:25;4.63;;;2.90;;
37843;SDS011;63793;57.632;18.292;2023-06-22T13:54:52;7.30;;;4.25;;
37843;SDS011;63793;57.632;18.292;2023-06-22T13:57:19;4.25;;;2.97;;
37843;SDS011;63793;57.632;18.292;2023-06-22T13:59:45;4.93;;;2.90;;
37843;SDS011;63793;57.632;18.292;2023-06-22T14:02:12;5.47;;;4.90;;
37843;SDS011;63793;57.632;18.292;2023-06-22T14:04:40;5.22;;;3.40;;
37843;SDS011;63793;57.632;18.292;2023-06-22T14:07:07;5.45;;;3.67;;
37843;SDS011;63793;57.632;18.292;2023-06-22T14:09:34;3.35;;;2.78;;
37843;SDS011;63793;57.632;18.292;2023-06-22T14:12:04;4.75;;;4.30;;
37843;SDS011;63793;57.632;18.292;2023-06-22T14:14:32;4.80;;;2.80;;
37843;SDS011;63793;57.632;18.292;2023-06-22T14:16:59;3.63;;;3.28;;
37843;SDS011;63793;57.632;18.292;2023-06-22T14:19:27;4.00;;;3.28;;
37843;SDS011;63793;57.632;18.292;2023-06-22T14:21:53;5.75;;;3.60;;
37843;SDS011;63793;57.632;18.292;2023-06-22T14:24:20;5.43;;;3.97;;
37843;SDS011;63793;57.632;18.292;2023-06-22T14:27:07;3.25;;;2.80;;
37843;SDS011;63793;57.632;18.292;2023-06-22T14:29:35;5.43;;;3.17;;
37843;SDS011;63793;57.632;18.292;2023-06-22T14:32:02;4.65;;;3.10;;
37843;SDS011;63793;57.632;18.292;2023-06-22T14:34:30;3.75;;;2.97;;
37843;SDS011;63793;57.632;18.292;2023-06-22T14:36:57;3.88;;;3.15;;
37843;SDS011;63793;57.632;18.292;2023-06-22T14:39:24;5.13;;;3.38;;
37843;SDS011;63793;57.632;18.292;2023-06-22T14:41:51;3.70;;;2.63;;
37843;SDS011;63793;57.632;18.292;2023-06-22T14:44:18;5.07;;;4.43;;
37843;SDS011;63793;57.632;18.292;2023-06-22T14:46:45;4.72;;;3.10;;
37843;SDS011;63793;57.632;18.292;2023-06-22T14:49:12;4.30;;;2.63;;
37843;SDS011;63793;57.632;18.292;2023-06-22T14:51:38;4.18;;;3.13;;
37843;SDS011;63793;57.632;18.292;2023-06-22T14:54:05;5.38;;;2.90;;